Time;durP1;ratioP1;P1;durP2;ratioP2;P2;SDS_P1;SDS_P2;PMS_P1;PMS_P2;Temp;Humidity;BMP_temperature;BMP_pressure;BME280_temperature;BME280_humidity;BME280_pressure;Samples;Min_cycle;Max_cycle;Signal;HPM_P1;HPM_P2
2021/05/14 00:01:24;;;;;;;8.47;7.70;;;;;;;;;;5108334;28;20429;-86
2021/05/14 00:03:50;;;;;;;7.33;6.83;;;;;;;;;;5114624;28;20411;-87
2021/05/14 00:06:16;;;;;;;6.57;6.10;;;;;;;;;;5114453;28;20434;-87
2021/05/14 00:08:42;;;;;;;5.83;4.90;;;;;;;;;;5102550;28;20428;-86
2021/05/14 00:11:08;;;;;;;5.60;5.10;;;;;;;;;;5103450;28;20414;-86
2021/05/14 00:13:35;;;;;;;5.27;4.87;;;;;;;;;;5101243;28;20496;-86
2021/05/14 00:16:01;;;;;;;3.80;3.43;;;;;;;;;;5099850;28;20415;-84
2021/05/14 00:18:27;;;;;;;3.50;3.20;;;;;;;;;;5099796;28;20431;-84
2021/05/14 00:20:53;;;;;;;3.67;3.40;;;;;;;;;;5100892;28;20419;-86
2021/05/14 00:23:19;;;;;;;3.30;3.00;;;;;;;;;;5097071;28;20454;-84
2021/05/14 00:25:52;;;;;;;4.37;3.97;;;;;;;;;;5097296;28;20408;-84
2021/05/14 00:28:18;;;;;;;3.73;3.43;;;;;;;;;;5097250;28;20431;-86
2021/05/14 00:30:44;;;;;;;2.90;2.70;;;;;;;;;;5097912;28;20508;-84
2021/05/14 00:33:10;;;;;;;3.00;2.80;;;;;;;;;;5098298;28;20459;-84
2021/05/14 00:35:36;;;;;;;2.90;2.70;;;;;;;;;;5088107;28;20541;-84
2021/05/14 00:38:02;;;;;;;3.63;3.33;;;;;;;;;;5081929;28;20460;-85
2021/05/14 00:40:29;;;;;;;4.10;3.60;;;;;;;;;;5080059;28;20401;-84
2021/05/14 00:42:55;;;;;;;4.10;3.80;;;;;;;;;;5078481;28;20426;-85
2021/05/14 00:45:21;;;;;;;3.80;3.60;;;;;;;;;;5079543;28;20478;-85
2021/05/14 00:47:47;;;;;;;5.30;4.90;;;;;;;;;;5079094;28;20399;-86
2021/05/14 00:50:13;;;;;;;3.83;3.63;;;;;;;;;;5080036;28;20412;-85
2021/05/14 00:52:40;;;;;;;5.13;4.20;;;;;;;;;;5081310;28;20407;-86
2021/05/14 00:55:09;;;;;;;4.77;4.47;;;;;;;;;;5085269;28;20407;-84
2021/05/14 00:57:37;;;;;;;4.20;3.90;;;;;;;;;;5097099;28;20404;-85
2021/05/14 01:00:06;;;;;;;3.43;3.23;;;;;;;;;;5097683;28;20380;-85
2021/05/14 01:02:32;;;;;;;4.30;4.00;;;;;;;;;;5097318;28;20411;-85
2021/05/14 01:04:58;;;;;;;4.47;4.17;;;;;;;;;;5068741;28;20446;-84
2021/05/14 01:07:25;;;;;;;3.23;2.90;;;;;;;;;;5078473;28;20411;-85
2021/05/14 01:09:53;;;;;;;2.87;2.67;;;;;;;;;;5078032;28;20428;-85
2021/05/14 01:12:19;;;;;;;3.67;3.37;;;;;;;;;;5077963;28;20405;-85
2021/05/14 01:14:45;;;;;;;3.53;3.33;;;;;;;;;;5079078;28;20455;-86
2021/05/14 01:17:11;;;;;;;3.33;3.13;;;;;;;;;;5078679;28;20432;-86
2021/05/14 01:19:39;;;;;;;3.90;3.60;;;;;;;;;;5062716;28;20421;-86
2021/05/14 01:22:06;;;;;;;4.30;4.00;;;;;;;;;;5062337;28;20474;-87
2021/05/14 01:24:34;;;;;;;3.57;3.27;;;;;;;;;;5062358;28;20943;-86
2021/05/14 01:27:01;;;;;;;3.00;2.80;;;;;;;;;;5079337;28;20483;-85
2021/05/14 01:29:27;;;;;;;3.40;3.20;;;;;;;;;;5079477;28;20439;-86
2021/05/14 01:31:53;;;;;;;3.53;3.33;;;;;;;;;;5080081;28;20412;-86
2021/05/14 01:34:19;;;;;;;3.20;3.00;;;;;;;;;;5066968;28;20511;-86
2021/05/14 01:36:45;;;;;;;3.07;2.87;;;;;;;;;;5087489;28;20443;-86
2021/05/14 01:39:16;;;;;;;2.60;2.40;;;;;;;;;;5070161;28;20431;-86
2021/05/14 01:41:42;;;;;;;2.87;2.67;;;;;;;;;;5088145;28;20395;-86
2021/05/14 01:44:08;;;;;;;3.57;3.27;;;;;;;;;;5088983;28;20762;-87
2021/05/14 01:46:34;;;;;;;3.50;3.30;;;;;;;;;;5086092;28;20416;-85
2021/05/14 01:49:01;;;;;;;3.93;3.40;;;;;;;;;;5062228;28;20431;-86
2021/05/14 01:51:27;;;;;;;3.37;3.17;;;;;;;;;;5079839;28;20842;-85
2021/05/14 01:53:53;;;;;;;4.00;3.77;;;;;;;;;;5081389;28;20539;-86
2021/05/14 01:56:20;;;;;;;4.40;4.00;;;;;;;;;;5079999;28;20424;-87
2021/05/14 01:58:50;;;;;;;4.07;3.77;;;;;;;;;;5081775;28;20772;-86
2021/05/14 02:01:17;;;;;;;4.17;3.87;;;;;;;;;;5066071;28;20484;-88
2021/05/14 02:03:43;;;;;;;4.03;3.80;;;;;;;;;;5090290;28;20426;-85
2021/05/14 02:06:09;;;;;;;4.00;3.70;;;;;;;;;;5090718;28;20412;-86
2021/05/14 02:08:35;;;;;;;5.80;3.57;;;;;;;;;;5080537;28;20432;-85
2021/05/14 02:11:03;;;;;;;4.43;4.07;;;;;;;;;;5076837;28;20477;-83
2021/05/14 02:13:29;;;;;;;3.87;3.57;;;;;;;;;;5078542;28;20444;-85
2021/05/14 02:15:55;;;;;;;5.53;5.10;;;;;;;;;;5078733;28;20416;-84
2021/05/14 02:18:21;;;;;;;5.23;4.83;;;;;;;;;;5078498;28;20447;-84
2021/05/14 02:20:47;;;;;;;5.13;4.63;;;;;;;;;;5077064;28;20420;-83
2021/05/14 02:23:13;;;;;;;5.73;4.67;;;;;;;;;;5072461;28;20416;-84
2021/05/14 02:25:39;;;;;;;5.33;4.93;;;;;;;;;;5069557;28;20458;-85
2021/05/14 02:28:08;;;;;;;4.83;4.53;;;;;;;;;;5059916;28;20450;-85
2021/05/14 02:30:34;;;;;;;4.93;4.63;;;;;;;;;;5076638;28;20432;-84
2021/05/14 02:33:00;;;;;;;4.63;4.33;;;;;;;;;;5075897;28;20799;-83
2021/05/14 02:35:26;;;;;;;4.83;4.40;;;;;;;;;;5083966;28;20403;-82
2021/05/14 02:37:52;;;;;;;4.00;3.70;;;;;;;;;;5092793;28;20510;-86
2021/05/14 02:40:18;;;;;;;4.17;3.87;;;;;;;;;;5096520;28;20484;-84
2021/05/14 02:42:44;;;;;;;4.77;4.47;;;;;;;;;;5096651;28;20397;-86
2021/05/14 02:45:11;;;;;;;4.73;4.40;;;;;;;;;;5071594;28;20477;-86
2021/05/14 02:47:37;;;;;;;4.53;4.23;;;;;;;;;;5063034;28;20420;-86
2021/05/14 02:50:05;;;;;;;5.60;5.20;;;;;;;;;;5078537;28;20475;-86
2021/05/14 02:52:31;;;;;;;5.20;4.80;;;;;;;;;;5061591;28;20412;-86
2021/05/14 02:54:57;;;;;;;5.73;5.23;;;;;;;;;;5061206;28;20467;-84
2021/05/14 02:57:23;;;;;;;3.63;3.37;;;;;;;;;;5078781;28;20396;-86
2021/05/14 02:59:50;;;;;;;4.43;4.13;;;;;;;;;;5066409;28;20467;-86
2021/05/14 03:02:16;;;;;;;3.53;3.33;;;;;;;;;;5065989;28;20416;-86
2021/05/14 03:04:42;;;;;;;6.93;4.80;;;;;;;;;;5082130;28;20426;-86
2021/05/14 03:07:08;;;;;;;4.80;4.50;;;;;;;;;;5081181;28;20420;-83
2021/05/14 03:09:34;;;;;;;5.10;4.70;;;;;;;;;;5083305;28;20796;-83
2021/05/14 03:12:00;;;;;;;5.23;4.87;;;;;;;;;;5083273;28;20408;-83
2021/05/14 03:14:26;;;;;;;5.40;5.10;;;;;;;;;;5066314;28;20447;-84
2021/05/14 03:16:52;;;;;;;6.80;6.13;;;;;;;;;;5084494;28;20393;-83
2021/05/14 03:19:18;;;;;;;5.90;5.50;;;;;;;;;;5084628;28;20466;-84
2021/05/14 03:21:44;;;;;;;5.90;5.40;;;;;;;;;;5066139;28;20464;-84
2021/05/14 03:24:10;;;;;;;5.47;5.07;;;;;;;;;;5056702;28;20947;-86
2021/05/14 03:26:36;;;;;;;7.00;6.40;;;;;;;;;;5093930;28;20423;-85
2021/05/14 03:29:03;;;;;;;6.23;5.77;;;;;;;;;;5093731;28;20495;-86
2021/05/14 03:31:29;;;;;;;6.00;5.50;;;;;;;;;;5094311;28;20409;-85
2021/05/14 03:33:55;;;;;;;5.70;5.30;;;;;;;;;;5077812;28;20523;-83
2021/05/14 03:36:21;;;;;;;6.73;6.23;;;;;;;;;;5094222;28;20420;-84
2021/05/14 03:38:48;;;;;;;6.70;6.20;;;;;;;;;;5094294;28;20444;-85
2021/05/14 03:44:00;;;;;;;15.10;5.73;;;;;;;;;;5093089;28;20436;-81
2021/05/14 03:46:27;;;;;;;6.53;6.03;;;;;;;;;;5081013;28;20392;-85
2021/05/14 03:48:53;;;;;;;5.80;5.40;;;;;;;;;;5099306;28;20400;-85
2021/05/14 03:51:19;;;;;;;6.43;5.83;;;;;;;;;;5084581;28;20412;-85
2021/05/14 03:53:45;;;;;;;6.33;5.93;;;;;;;;;;5083183;28;20896;-85
2021/05/14 03:56:11;;;;;;;5.73;5.23;;;;;;;;;;5065290;28;20416;-85
2021/05/14 03:58:37;;;;;;;7.70;6.87;;;;;;;;;;5064975;28;20957;-85
2021/05/14 04:01:03;;;;;;;6.37;5.87;;;;;;;;;;5066181;28;20412;-85
2021/05/14 04:03:29;;;;;;;5.97;5.57;;;;;;;;;;5085119;28;20471;-84
2021/05/14 04:05:55;;;;;;;6.77;6.27;;;;;;;;;;5065588;28;20415;-84
2021/05/14 04:08:21;;;;;;;6.77;6.37;;;;;;;;;;5064736;28;20408;-84
2021/05/14 04:16:05;;;;;;;5.60;5.20;;;;;;;;;;5082675;28;20392;-85
2021/05/14 04:18:36;;;;;;;5.77;5.37;;;;;;;;;;5065102;28;20530;-85
2021/05/14 04:21:02;;;;;;;5.30;4.90;;;;;;;;;;5086424;28;20400;-84
2021/05/14 04:23:28;;;;;;;4.90;4.60;;;;;;;;;;5088951;28;20447;-85
2021/05/14 04:25:55;;;;;;;4.43;4.03;;;;;;;;;;5082844;28;20422;-85
2021/05/14 04:28:21;;;;;;;4.13;3.83;;;;;;;;;;5082975;28;20484;-85
2021/05/14 04:30:47;;;;;;;4.90;4.50;;;;;;;;;;5082482;28;20412;-86
2021/05/14 04:33:13;;;;;;;4.83;4.43;;;;;;;;;;5082637;28;20967;-86
2021/05/14 04:35:39;;;;;;;3.83;3.63;;;;;;;;;;5081304;28;20413;-85
2021/05/14 04:38:05;;;;;;;4.60;4.30;;;;;;;;;;5079961;28;20411;-84
2021/05/14 04:40:32;;;;;;;4.50;4.20;;;;;;;;;;5068245;28;20412;-87
2021/05/14 04:43:01;;;;;;;4.90;4.47;;;;;;;;;;5082027;28;20801;-85
2021/05/14 04:45:27;;;;;;;7.63;7.03;;;;;;;;;;5064122;28;20428;-86
2021/05/14 04:47:54;;;;;;;5.17;4.53;;;;;;;;;;5065821;28;20454;-86
2021/05/14 04:50:20;;;;;;;5.30;4.90;;;;;;;;;;5070671;28;20420;-84
2021/05/14 04:52:46;;;;;;;6.17;5.50;;;;;;;;;;5069960;28;20495;-85
2021/05/14 04:55:16;;;;;;;5.20;4.53;;;;;;;;;;5063872;28;20421;-86
2021/05/14 04:57:42;;;;;;;5.40;5.00;;;;;;;;;;5070134;28;20389;-85
2021/05/14 05:00:08;;;;;;;5.17;4.77;;;;;;;;;;5082666;28;20408;-85
2021/05/14 05:02:36;;;;;;;4.60;4.20;;;;;;;;;;5064860;28;20432;-86
2021/05/14 05:05:02;;;;;;;5.43;4.70;;;;;;;;;;5068055;28;20786;-86
2021/05/14 05:07:30;;;;;;;4.20;3.90;;;;;;;;;;5066441;28;20924;-85
2021/05/14 05:09:56;;;;;;;5.47;5.00;;;;;;;;;;5085570;28;20414;-87
2021/05/14 05:12:26;;;;;;;5.47;5.07;;;;;;;;;;5083336;28;20424;-87
2021/05/14 05:14:52;;;;;;;5.97;5.47;;;;;;;;;;5065314;28;20451;-86
2021/05/14 05:17:18;;;;;;;6.30;5.53;;;;;;;;;;5064542;28;20412;-86
2021/05/14 05:19:44;;;;;;;6.73;6.13;;;;;;;;;;5063499;28;20820;-86
2021/05/14 05:22:10;;;;;;;6.03;5.53;;;;;;;;;;5067132;28;20450;-86
2021/05/14 05:24:36;;;;;;;5.40;5.00;;;;;;;;;;5065510;28;20419;-86
2021/05/14 05:27:02;;;;;;;6.00;4.73;;;;;;;;;;5064451;28;20437;-85
2021/05/14 05:29:28;;;;;;;5.03;4.47;;;;;;;;;;5082336;28;20507;-87
2021/05/14 05:31:54;;;;;;;4.90;4.50;;;;;;;;;;5081570;28;20443;-86
2021/05/14 05:34:20;;;;;;;3.90;3.60;;;;;;;;;;5084263;28;20545;-85
2021/05/14 05:36:46;;;;;;;4.87;4.30;;;;;;;;;;5066756;28;20793;-85
2021/05/14 05:39:12;;;;;;;4.00;3.60;;;;;;;;;;5084044;28;20768;-85
2021/05/14 05:41:38;;;;;;;4.00;3.57;;;;;;;;;;5051816;28;20416;-84
2021/05/14 05:44:04;;;;;;;3.80;3.37;;;;;;;;;;5086454;28;20377;-85
2021/05/14 05:46:30;;;;;;;4.10;3.80;;;;;;;;;;5084486;28;20408;-87
2021/05/14 05:48:56;;;;;;;4.70;4.40;;;;;;;;;;5086212;28;20404;-85
2021/05/14 05:51:22;;;;;;;3.30;3.10;;;;;;;;;;5084961;28;20400;-82
2021/05/14 05:53:48;;;;;;;5.23;4.80;;;;;;;;;;5066063;28;20447;-85
2021/05/14 05:56:17;;;;;;;4.90;4.50;;;;;;;;;;5084164;28;20415;-86
2021/05/14 05:58:43;;;;;;;6.07;5.63;;;;;;;;;;5082642;28;20420;-85
2021/05/14 06:01:10;;;;;;;5.63;5.17;;;;;;;;;;5063709;28;20427;-86
2021/05/14 06:03:36;;;;;;;6.03;5.57;;;;;;;;;;5083515;28;20444;-86
2021/05/14 06:06:02;;;;;;;6.23;5.73;;;;;;;;;;5064533;28;20423;-87
2021/05/14 06:08:28;;;;;;;5.40;5.00;;;;;;;;;;5081062;28;20749;-88
2021/05/14 06:10:54;;;;;;;4.70;4.23;;;;;;;;;;5065073;28;20426;-87
2021/05/14 06:13:24;;;;;;;5.13;4.83;;;;;;;;;;5082971;28;20818;-85
2021/05/14 06:15:52;;;;;;;5.07;4.67;;;;;;;;;;5047153;28;20840;-85
2021/05/14 06:18:21;;;;;;;5.23;4.73;;;;;;;;;;5064094;28;20412;-86
2021/05/14 06:20:51;;;;;;;5.40;4.90;;;;;;;;;;5048792;28;20751;-84
2021/05/14 06:23:17;;;;;;;6.93;6.20;;;;;;;;;;5065941;28;20438;-85
2021/05/14 06:25:43;;;;;;;7.13;6.40;;;;;;;;;;5081773;28;20435;-84
2021/05/14 06:28:16;;;;;;;6.40;5.80;;;;;;;;;;5082344;28;20416;-86
2021/05/14 06:30:45;;;;;;;6.40;5.90;;;;;;;;;;5048670;28;20535;-86
2021/05/14 06:33:11;;;;;;;6.90;6.27;;;;;;;;;;5067013;28;20524;-86
2021/05/14 06:35:39;;;;;;;6.43;5.93;;;;;;;;;;5069713;28;20431;-86
2021/05/14 06:38:29;;;;;;;;;;;;;;;;;;;;;
2021/05/14 06:41:27;;;;;;;8.23;7.53;;;;;;;;;;5074357;28;20404;-87
2021/05/14 06:44:28;;;;;;;8.97;8.17;;;;;;;;;;4994549;28;20415;-86
2021/05/14 06:47:07;;;;;;;6.27;5.77;;;;;;;;;;4978608;28;20411;-88
2021/05/14 06:49:36;;;;;;;5.20;4.70;;;;;;;;;;4991738;28;20457;-85
2021/05/14 06:52:17;;;;;;;5.27;4.77;;;;;;;;;;4976982;28;20801;-87
2021/05/14 06:54:56;;;;;;;7.37;5.10;;;;;;;;;;4990447;28;20444;-87
2021/05/14 06:57:40;;;;;;;5.80;4.40;;;;;;;;;;4990496;28;20950;-86
2021/05/14 07:00:09;;;;;;;5.57;5.07;;;;;;;;;;5000436;28;20422;-88
2021/05/14 07:03:11;;;;;;;4.20;3.80;;;;;;;;;;4995875;28;20458;-87
2021/05/14 07:05:46;;;;;;;4.53;4.17;;;;;;;;;;4994746;28;20427;-85
2021/05/14 07:08:17;;;;;;;4.67;4.30;;;;;;;;;;4995126;28;20396;-87
2021/05/14 07:10:50;;;;;;;4.93;4.47;;;;;;;;;;5433640;22;20550;-87
2021/05/14 07:13:21;;;;;;;4.57;4.17;;;;;;;;;;5110553;28;20467;-88
2021/05/14 07:15:54;;;;;;;7.13;4.70;;;;;;;;;;5106742;28;20441;-87
2021/05/14 07:18:23;;;;;;;3.20;2.97;;;;;;;;;;5105538;28;20410;-87
2021/05/14 07:21:02;;;;;;;3.03;2.83;;;;;;;;;;5105034;28;20760;-87
2021/05/14 07:24:00;;;;;;;6.47;3.63;;;;;;;;;;5094941;28;20407;-88
2021/05/14 07:26:32;;;;;;;2.83;2.60;;;;;;;;;;5106277;28;20410;-87
2021/05/14 07:29:12;;;;;;;4.43;3.90;;;;;;;;;;5107162;28;20403;-85
2021/05/14 07:32:15;;;;;;;;;;;;;;;;;;;;;
2021/05/14 07:35:19;;;;;;;3.20;3.00;;;;;;;;;;5107654;28;20446;-88
2021/05/14 07:38:10;;;;;;;5.73;3.83;;;;;;;;;;5106088;28;20372;-86
2021/05/14 07:40:40;;;;;;;3.80;3.13;;;;;;;;;;5105271;28;20460;-86
2021/05/14 07:43:36;;;;;;;1.60;1.50;;;;;;;;;;5107742;28;20442;-86
2021/05/14 07:46:11;;;;;;;3.13;2.93;;;;;;;;;;5089320;28;20459;-87
2021/05/14 07:55:10;;;;;;;2.97;2.67;;;;;;;;;;5104843;28;20519;-87
2021/05/14 07:57:49;;;;;;;2.80;2.60;;;;;;;;;;5105485;28;20469;-87
2021/05/14 08:04:21;;;;;;;2.60;2.40;;;;;;;;;;5043363;28;20569;-87
2021/05/14 08:06:57;;;;;;;4.53;2.30;;;;;;;;;;5044856;28;20437;-84
2021/05/14 08:09:35;;;;;;;2.60;2.40;;;;;;;;;;5025877;28;20445;-88
2021/05/14 08:12:39;;;;;;;3.97;2.50;;;;;;;;;;5031458;28;20468;-87
2021/05/14 08:15:39;;;;;;;3.03;2.83;;;;;;;;;;5028433;28;21001;-87
2021/05/14 08:18:22;;;;;;;2.27;2.07;;;;;;;;;;5045004;28;20899;-87
2021/05/14 08:40:42;;;;;;;4.50;4.10;;;;;;;;;;1059714;26;20761;-85
2021/05/14 09:05:59;;;;;;;4.67;4.27;;;;;;;;;;4905564;29;20413;-86
2021/05/14 09:08:35;;;;;;;5.77;5.37;;;;;;;;;;4892622;29;20423;-86
2021/05/14 09:11:26;;;;;;;6.53;4.70;;;;;;;;;;4884050;29;20463;-86
2021/05/14 09:28:28;;;;;;;4.33;3.93;;;;;;;;;;4960165;28;20418;-86
2021/05/14 09:45:12;;;;;;;6.93;4.20;;;;;;;;;;1500394;26;20460;-86
2021/05/14 09:47:39;;;;;;;5.30;2.30;;;;;;;;;;5046356;28;20405;-85
2021/05/14 09:50:32;;;;;;;1.97;1.87;;;;;;;;;;5052664;28;20409;-84
2021/05/14 09:53:07;;;;;;;3.00;2.80;;;;;;;;;;5052149;28;20429;-83
2021/05/14 09:55:35;;;;;;;3.13;2.50;;;;;;;;;;5050829;28;20389;-85
2021/05/14 09:58:13;;;;;;;2.30;2.10;;;;;;;;;;5043698;28;20409;-86
2021/05/14 10:00:39;;;;;;;3.17;2.97;;;;;;;;;;5044630;28;20503;-84
2021/05/14 10:03:06;;;;;;;4.50;3.33;;;;;;;;;;5043716;28;20436;-85
2021/05/14 10:05:35;;;;;;;2.17;1.90;;;;;;;;;;5045436;28;20401;-86
2021/05/14 10:08:05;;;;;;;3.73;3.37;;;;;;;;;;5047571;28;20511;-86
2021/05/14 10:10:37;;;;;;;4.80;3.10;;;;;;;;;;5065394;28;20401;-85
2021/05/14 10:13:03;;;;;;;6.20;4.03;;;;;;;;;;5048252;28;20432;-86
2021/05/14 10:15:33;;;;;;;3.70;3.30;;;;;;;;;;5035094;28;20492;-87
2021/05/14 10:18:01;;;;;;;4.33;4.03;;;;;;;;;;5067419;28;20413;-85
2021/05/14 10:20:31;;;;;;;4.60;4.20;;;;;;;;;;5048028;28;20412;-86
2021/05/14 10:23:01;;;;;;;2.50;2.30;;;;;;;;;;5047230;28;20506;-86
2021/05/14 10:25:41;;;;;;;3.87;3.13;;;;;;;;;;5047002;28;20417;-87
2021/05/14 10:28:09;;;;;;;7.10;4.20;;;;;;;;;;5046864;28;20769;-85
2021/05/14 10:30:35;;;;;;;3.73;2.90;;;;;;;;;;5046893;28;20413;-84
2021/05/14 10:33:03;;;;;;;3.07;2.77;;;;;;;;;;5044254;28;20421;-85
2021/05/14 10:35:37;;;;;;;3.83;3.20;;;;;;;;;;5031057;28;20456;-85
2021/05/14 10:38:04;;;;;;;5.50;3.13;;;;;;;;;;5045889;28;20413;-85
2021/05/14 10:40:33;;;;;;;4.77;4.30;;;;;;;;;;5045633;28;20428;-85
2021/05/14 10:43:24;;;;;;;2.90;2.53;;;;;;;;;;5045956;28;20425;-86
2021/05/14 10:46:07;;;;;;;2.97;2.57;;;;;;;;;;5062023;28;20435;-86
2021/05/14 10:48:53;;;;;;;2.23;2.00;;;;;;;;;;5045758;28;20412;-87
2021/05/14 10:51:24;;;;;;;4.20;2.07;;;;;;;;;;5047239;28;20468;-85
2021/05/14 10:53:53;;;;;;;3.87;2.27;;;;;;;;;;5064921;28;20539;-87
2021/05/14 10:56:27;;;;;;;1.93;1.80;;;;;;;;;;5045624;28;20432;-85
2021/05/14 10:59:02;;;;;;;3.57;2.27;;;;;;;;;;5046678;28;20413;-86
2021/05/14 11:01:37;;;;;;;4.23;2.13;;;;;;;;;;5045979;28;20443;-84
2021/05/14 11:04:12;;;;;;;3.03;1.83;;;;;;;;;;5053653;28;20442;-87
2021/05/14 11:06:42;;;;;;;3.30;2.67;;;;;;;;;;5062881;28;20438;-85
2021/05/14 11:09:10;;;;;;;2.40;2.30;;;;;;;;;;5063012;28;20389;-85
2021/05/14 11:18:06;;;;;;;3.47;3.13;;;;;;;;;;4983860;28;20420;-85
2021/05/14 11:20:49;;;;;;;2.57;2.17;;;;;;;;;;5006121;28;20528;-85
2021/05/14 11:23:34;;;;;;;3.83;2.07;;;;;;;;;;5045535;28;20457;-84
2021/05/14 11:26:52;;;;;;;;;;;;;;;;;;;;;
2021/05/14 11:34:05;;;;;;;2.53;2.33;;;;;;;;;;5007174;28;20421;-87
2021/05/14 11:36:32;;;;;;;2.67;2.20;;;;;;;;;;4989197;28;20422;-87
2021/05/14 11:39:07;;;;;;;3.03;2.40;;;;;;;;;;5021828;28;20434;-86
2021/05/14 11:41:46;;;;;;;2.93;2.57;;;;;;;;;;5005658;28;20421;-85
2021/05/14 11:44:14;;;;;;;4.03;3.10;;;;;;;;;;5005824;28;20449;-86
2021/05/14 11:46:46;;;;;;;3.40;2.33;;;;;;;;;;5005062;28;20421;-84
2021/05/14 11:49:15;;;;;;;4.30;3.63;;;;;;;;;;5021936;28;20458;-86
2021/05/14 11:51:55;;;;;;;3.57;3.30;;;;;;;;;;5038201;28;20453;-87
2021/05/14 11:54:48;;;;;;;4.27;3.87;;;;;;;;;;5045838;28;20448;-87
2021/05/14 11:57:30;;;;;;;5.50;4.03;;;;;;;;;;5061750;28;20817;-87
2021/05/14 11:59:59;;;;;;;4.30;3.90;;;;;;;;;;5046886;28;21036;-85
2021/05/14 12:02:38;;;;;;;3.83;3.43;;;;;;;;;;5062775;28;20435;-88
2021/05/14 12:05:12;;;;;;;4.77;4.30;;;;;;;;;;5062438;28;20404;-88
2021/05/14 12:07:41;;;;;;;6.90;5.03;;;;;;;;;;5045798;28;20473;-88
2021/05/14 12:10:08;;;;;;;5.00;4.60;;;;;;;;;;5062276;28;20922;-86
2021/05/14 12:12:40;;;;;;;8.17;3.00;;;;;;;;;;5063983;28;20529;-87
2021/05/14 12:15:13;;;;;;;3.60;3.30;;;;;;;;;;5061990;28;20510;-86
2021/05/14 12:17:39;;;;;;;3.13;2.80;;;;;;;;;;5062461;28;20409;-86
2021/05/14 12:20:23;;;;;;;3.20;2.93;;;;;;;;;;5045514;28;20405;-88
2021/05/14 12:22:50;;;;;;;4.10;3.20;;;;;;;;;;5063119;28;20578;-87
2021/05/14 12:25:39;;;;;;;4.40;4.03;;;;;;;;;;5048292;28;20417;-88
2021/05/14 12:28:31;;;;;;;4.67;2.40;;;;;;;;;;5043007;28;20480;-87
2021/05/14 12:31:21;;;;;;;3.10;2.33;;;;;;;;;;5061791;28;20418;-87
2021/05/14 12:34:00;;;;;;;3.77;2.17;;;;;;;;;;5070733;28;20480;-88
2021/05/14 12:36:31;;;;;;;2.03;1.93;;;;;;;;;;5051145;28;20409;-87
2021/05/14 12:39:13;;;;;;;3.40;1.83;;;;;;;;;;5067225;28;20454;-85
2021/05/14 12:41:42;;;;;;;1.43;1.30;;;;;;;;;;5062677;28;20456;-85
2021/05/14 12:44:13;;;;;;;2.80;1.90;;;;;;;;;;5053628;28;20437;-85
2021/05/14 12:47:02;;;;;;;1.97;1.77;;;;;;;;;;5060944;28;20419;-84
2021/05/14 12:49:45;;;;;;;4.27;2.30;;;;;;;;;;5077214;28;20433;-85
2021/05/14 12:52:11;;;;;;;4.23;2.10;;;;;;;;;;5076674;28;20402;-86
2021/05/14 12:54:50;;;;;;;2.87;1.90;;;;;;;;;;5047066;28;20554;-86
2021/05/14 12:57:39;;;;;;;2.17;1.97;;;;;;;;;;5054732;28;20436;-85
2021/05/14 13:00:14;;;;;;;3.47;2.10;;;;;;;;;;5061970;28;20507;-87
2021/05/14 13:03:09;;;;;;;10.87;4.93;;;;;;;;;;5047617;28;20450;-86
2021/05/14 13:05:46;;;;;;;1.73;1.37;;;;;;;;;;5063829;28;20434;-87
2021/05/14 13:08:23;;;;;;;2.20;1.47;;;;;;;;;;5061932;28;20389;-87
2021/05/14 13:11:01;;;;;;;2.60;1.47;;;;;;;;;;5061359;28;20396;-86
2021/05/14 13:13:41;;;;;;;;;;;;;;;;;;;;;
2021/05/14 13:16:08;;;;;;;1.70;1.47;;;;;;;;;;5062420;28;20408;-86
2021/05/14 13:21:50;;;;;;;3.00;2.20;;;;;;;;;;5055992;28;20425;-88
2021/05/14 13:24:18;;;;;;;1.73;1.63;;;;;;;;;;5060145;28;20448;-88
2021/05/14 13:26:45;;;;;;;1.97;1.70;;;;;;;;;;5058673;28;20415;-88
2021/05/14 13:29:11;;;;;;;5.93;3.50;;;;;;;;;;5042229;28;20421;-86
2021/05/14 13:31:43;;;;;;;1.90;1.30;;;;;;;;;;5044981;28;20474;-86
2021/05/14 13:34:10;;;;;;;1.63;1.53;;;;;;;;;;5059344;28;20786;-87
2021/05/14 13:36:36;;;;;;;3.33;1.43;;;;;;;;;;5042957;28;20431;-86
2021/05/14 13:39:23;;;;;;;2.13;1.63;;;;;;;;;;5059310;28;20413;-87
2021/05/14 13:42:04;;;;;;;8.50;6.43;;;;;;;;;;5042061;28;20390;-88
2021/05/14 13:44:33;;;;;;;4.87;3.47;;;;;;;;;;5059008;28;20508;-87
2021/05/14 13:47:11;;;;;;;2.77;2.57;;;;;;;;;;5059136;28;20508;-87
2021/05/14 13:49:57;;;;;;;3.73;2.20;;;;;;;;;;5058912;28;20477;-88
2021/05/14 13:52:23;;;;;;;3.70;3.27;;;;;;;;;;5059314;28;20440;-88
2021/05/14 13:54:52;;;;;;;2.83;2.53;;;;;;;;;;5060781;28;20437;-87
2021/05/14 13:57:19;;;;;;;5.00;2.07;;;;;;;;;;5043854;28;20535;-89
2021/05/14 13:59:45;;;;;;;2.13;1.60;;;;;;;;;;5059405;28;20405;-86
2021/05/14 14:02:12;;;;;;;2.03;1.63;;;;;;;;;;5041733;28;20412;-87
2021/05/14 14:04:50;;;;;;;2.33;1.50;;;;;;;;;;5039112;28;20441;-87
2021/05/14 14:07:16;;;;;;;3.10;1.67;;;;;;;;;;5060830;28;20914;-86
2021/05/14 14:09:52;;;;;;;1.30;1.20;;;;;;;;;;5060686;28;20417;-86
2021/05/14 14:12:46;;;;;;;3.00;2.20;;;;;;;;;;5035210;28;20444;-87
2021/05/14 14:15:22;;;;;;;2.13;1.73;;;;;;;;;;5069380;28;20468;-88
2021/05/14 14:18:31;;;;;;;;;;;;;;;;;;;;;
2021/05/14 14:21:10;;;;;;;1.93;1.73;;;;;;;;;;5063315;28;20435;-89
2021/05/14 14:27:22;;;;;;;1.80;1.70;;;;;;;;;;5074995;28;20450;-86
2021/05/14 14:30:20;;;;;;;1.93;1.60;;;;;;;;;;5076372;28;20382;-86
2021/05/14 14:36:29;;;;;;;3.00;1.60;;;;;;;;;;5067989;28;20401;-88
2021/05/14 14:39:08;;;;;;;2.30;1.70;;;;;;;;;;5048652;28;20473;-87
2021/05/14 14:41:52;;;;;;;2.93;1.83;;;;;;;;;;5064263;28;20385;-87
2021/05/14 15:19:41;;;;;;;;;;;;;;;;;;;;;
2021/05/14 15:29:51;;;;;;;4.17;2.00;;;;;;;;;;5066865;28;20405;-85
2021/05/14 15:32:36;;;;;;;1.40;1.30;;;;;;;;;;5052753;28;20428;-83
2021/05/14 15:35:36;;;;;;;;;;;;;;;;;;;;;
2021/05/14 15:38:26;;;;;;;4.93;1.73;;;;;;;;;;5018356;28;20406;-86
2021/05/14 15:41:06;;;;;;;1.60;1.50;;;;;;;;;;5030485;28;20399;-86
2021/05/14 15:46:24;;;;;;;4.10;1.30;;;;;;;;;;5068075;26;20460;-86
2021/05/14 15:49:16;;;;;;;4.00;3.07;;;;;;;;;;5078091;28;20403;-86
2021/05/14 15:51:54;;;;;;;2.00;1.90;;;;;;;;;;5074372;28;20394;-86
2021/05/14 15:54:21;;;;;;;3.63;3.33;;;;;;;;;;5076929;28;20480;-85
2021/05/14 15:56:47;;;;;;;2.37;2.17;;;;;;;;;;5075962;28;20396;-86
2021/05/14 15:59:13;;;;;;;1.83;1.73;;;;;;;;;;5075634;28;20420;-86
2021/05/14 16:01:39;;;;;;;1.40;1.23;;;;;;;;;;5058012;28;20408;-85
2021/05/14 16:04:05;;;;;;;1.43;1.30;;;;;;;;;;5093158;28;20429;-85
2021/05/14 16:06:52;;;;;;;1.57;1.40;;;;;;;;;;5076723;28;20391;-86
2021/05/14 16:09:20;;;;;;;1.57;1.17;;;;;;;;;;5059019;28;20550;-85
2021/05/14 16:11:46;;;;;;;1.53;1.43;;;;;;;;;;5092446;28;20502;-84
2021/05/14 16:14:33;;;;;;;1.40;1.20;;;;;;;;;;5074979;28;20463;-85
2021/05/14 16:17:31;;;;;;;2.27;1.60;;;;;;;;;;5060123;28;20492;-85
2021/05/14 16:20:41;;;;;;;2.17;1.43;;;;;;;;;;5074577;28;20423;-86
2021/05/14 16:23:21;;;;;;;1.47;1.30;;;;;;;;;;5090473;28;20413;-85
2021/05/14 16:25:55;;;;;;;1.43;1.33;;;;;;;;;;5073193;28;20502;-88
2021/05/14 16:40:48;;;;;;;1.77;1.50;;;;;;;;;;4859023;26;20461;-84
2021/05/14 16:43:20;;;;;;;1.43;1.33;;;;;;;;;;5054451;28;20437;-87
2021/05/14 16:45:49;;;;;;;1.80;1.70;;;;;;;;;;5054004;28;20440;-85
2021/05/14 16:48:25;;;;;;;;;;;;;;;;;;;;;
2021/05/14 16:51:05;;;;;;;;;;;;;;;;;;;;;
2021/05/14 16:56:29;;;;;;;2.03;1.80;;;;;;;;;;1313734;26;20472;-84
2021/05/14 17:35:08;;;;;;;2.60;1.70;;;;;;;;;;3129038;22;20990;-85
2021/05/14 17:37:46;;;;;;;2.13;1.93;;;;;;;;;;5108748;28;20787;-86
2021/05/14 17:40:13;;;;;;;1.97;1.87;;;;;;;;;;5106966;28;20422;-86
2021/05/14 17:43:05;;;;;;;4.77;1.90;;;;;;;;;;5104271;28;20457;-87
2021/05/14 18:00:23;;;;;;;;;;;;;;;;;;;;;
2021/05/14 22:45:28;;;;;;;4.13;3.80;;;;;;;;;;4983293;28;20517;-85
2021/05/14 22:48:32;;;;;;;5.00;4.20;;;;;;;;;;5043111;22;20469;-85
2021/05/14 22:51:18;;;;;;;4.33;3.93;;;;;;;;;;5055746;28;20533;-86
2021/05/14 22:54:14;;;;;;;4.33;3.93;;;;;;;;;;4977519;28;20449;-87
2021/05/14 22:57:07;;;;;;;4.40;4.07;;;;;;;;;;4960308;28;20426;-86
2021/05/14 23:00:26;;;;;;;;;;;;;;;;;;;;;
2021/05/14 23:03:37;;;;;;;5.70;4.80;;;;;;;;;;4972312;28;20524;-86
2021/05/14 23:06:51;;;;;;;6.57;4.70;;;;;;;;;;4978988;28;20409;-86
2021/05/14 23:09:35;;;;;;;4.90;3.70;;;;;;;;;;4960501;28;20435;-86
2021/05/14 23:12:20;;;;;;;;;;;;;;;;;;;;;
2021/05/14 23:14:59;;;;;;;6.90;5.07;;;;;;;;;;4982403;28;20515;-85
2021/05/14 23:17:26;;;;;;;5.23;4.73;;;;;;;;;;4968224;28;20447;-86
2021/05/14 23:19:56;;;;;;;6.20;4.60;;;;;;;;;;4984168;28;20475;-86
2021/05/14 23:22:44;;;;;;;;;;;;;;;;;;;;;
2021/05/14 23:25:32;;;;;;;3.53;3.23;;;;;;;;;;4999664;28;20425;-87
2021/05/14 23:28:27;;;;;;;4.43;3.73;;;;;;;;;;4968290;28;20436;-85
2021/05/14 23:31:34;;;;;;;4.10;3.80;;;;;;;;;;4997270;28;20436;-86
2021/05/14 23:34:21;;;;;;;5.27;4.87;;;;;;;;;;4962592;28;20460;-86
2021/05/14 23:36:58;;;;;;;4.10;3.80;;;;;;;;;;4975844;28;20489;-87
2021/05/14 23:39:37;;;;;;;;;;;;;;;;;;;;;
2021/05/14 23:42:41;;;;;;;5.57;5.17;;;;;;;;;;4999888;28;20557;-87
2021/05/14 23:45:17;;;;;;;4.70;4.00;;;;;;;;;;5032059;28;20406;-87
2021/05/14 23:48:09;;;;;;;4.30;3.90;;;;;;;;;;5047676;28;20442;-87
2021/05/14 23:50:38;;;;;;;5.23;4.40;;;;;;;;;;5033812;28;20429;-86
2021/05/14 23:53:17;;;;;;;5.60;4.13;;;;;;;;;;5050729;28;20402;-86
2021/05/14 23:55:49;;;;;;;5.17;4.10;;;;;;;;;;5053017;28;20465;-87
2021/05/14 23:58:18;;;;;;;6.20;5.50;;;;;;;;;;5032420;28;20444;-86
